createdAt,value
2018-09-13T00:01:22.547Z,15.50
2018-09-13T00:03:51.787Z,15.50
2018-09-13T00:06:21.117Z,15.40
2018-09-13T00:08:50.431Z,15.50
2018-09-13T00:11:19.672Z,15.40
2018-09-13T00:13:48.964Z,15.40
2018-09-13T00:16:18.207Z,15.40
2018-09-13T00:18:47.465Z,15.40
2018-09-13T00:21:16.858Z,15.40
2018-09-13T00:23:46.291Z,15.30
2018-09-13T00:26:15.539Z,15.30
2018-09-13T00:28:44.759Z,15.30
2018-09-13T00:31:14.054Z,15.30
2018-09-13T00:33:43.262Z,15.30
2018-09-13T00:36:12.656Z,15.20
2018-09-13T00:38:41.897Z,15.20
2018-09-13T00:41:11.236Z,15.10
2018-09-13T00:43:40.522Z,15.20
2018-09-13T00:46:09.806Z,15.10
2018-09-13T00:48:39.075Z,15.10
2018-09-13T00:51:08.298Z,15.10
2018-09-13T00:53:37.563Z,15.10
2018-09-13T00:56:06.815Z,15.00
2018-09-13T00:58:36.043Z,15.10
2018-09-13T01:01:05.367Z,15.00
2018-09-13T01:03:34.572Z,15.00
2018-09-13T01:06:03.774Z,15.00
2018-09-13T01:08:33.070Z,15.00
2018-09-13T01:11:02.295Z,15.00
2018-09-13T01:13:31.552Z,15.00
2018-09-13T01:16:00.746Z,15.00
2018-09-13T01:18:29.967Z,14.90
2018-09-13T01:20:59.206Z,14.90
2018-09-13T01:23:28.527Z,14.90
2018-09-13T01:25:57.815Z,14.80
2018-09-13T01:28:27.100Z,14.80
2018-09-13T01:30:56.308Z,14.80
2018-09-13T01:33:25.522Z,14.80
2018-09-13T01:35:54.779Z,14.70
2018-09-13T01:38:24.012Z,14.70
2018-09-13T01:40:53.332Z,14.60
2018-09-13T01:43:22.611Z,14.60
2018-09-13T01:45:51.821Z,14.60
2018-09-13T01:48:21.022Z,14.60
2018-09-13T01:50:50.205Z,14.60
2018-09-13T01:53:19.467Z,14.60
2018-09-13T01:55:48.666Z,14.60
2018-09-13T01:58:17.958Z,14.60
2018-09-13T02:00:47.278Z,14.60
2018-09-13T02:03:16.551Z,14.60
2018-09-13T02:05:45.804Z,14.60
2018-09-13T02:08:15.004Z,14.60
2018-09-13T02:10:44.269Z,14.50
2018-09-13T02:13:13.567Z,14.50
2018-09-13T02:15:42.811Z,14.50
2018-09-13T02:18:12.043Z,14.50
2018-09-13T02:20:41.364Z,14.50
2018-09-13T02:23:10.573Z,14.40
2018-09-13T02:25:39.913Z,14.50
2018-09-13T02:28:09.400Z,14.50
2018-09-13T02:30:38.620Z,14.40
2018-09-13T02:33:08.200Z,14.40
2018-09-13T02:35:37.489Z,14.40
2018-09-13T02:38:06.825Z,14.40
2018-09-13T02:40:36.093Z,14.40
2018-09-13T02:43:05.383Z,14.40
2018-09-13T02:45:34.592Z,14.40
2018-09-13T02:48:03.842Z,14.40
2018-09-13T02:50:33.131Z,14.40
2018-09-13T02:53:02.344Z,14.40
2018-09-13T02:55:31.578Z,14.40
2018-09-13T02:58:01.763Z,14.40
2018-09-13T03:00:31.074Z,14.40
2018-09-13T03:03:00.312Z,14.40
2018-09-13T03:05:29.603Z,14.50
2018-09-13T03:07:58.802Z,14.60
2018-09-13T03:10:28.046Z,14.60
2018-09-13T03:12:57.284Z,14.70
2018-09-13T03:15:26.515Z,14.70
2018-09-13T03:17:55.746Z,14.90
2018-09-13T03:20:25.067Z,15.30
2018-09-13T03:22:54.371Z,15.60
2018-09-13T03:25:23.586Z,15.80
2018-09-13T03:27:53.415Z,16.00
2018-09-13T03:30:23.026Z,16.30
2018-09-13T03:32:52.500Z,16.40
2018-09-13T03:35:21.767Z,16.50
2018-09-13T03:37:51.185Z,16.60
2018-09-13T03:40:20.471Z,16.60
2018-09-13T03:42:49.703Z,16.60
2018-09-13T03:45:19.195Z,16.60
2018-09-13T03:47:48.552Z,16.60
2018-09-13T03:50:17.949Z,16.60
2018-09-13T03:52:47.160Z,16.60
2018-09-13T03:55:16.483Z,16.60
2018-09-13T03:57:45.939Z,16.50
2018-09-13T04:00:15.252Z,16.50
2018-09-13T04:02:44.473Z,16.50
2018-09-13T04:05:13.715Z,16.50
2018-09-13T04:07:43.229Z,16.50
2018-09-13T04:10:12.476Z,16.50
2018-09-13T04:12:41.725Z,16.50
2018-09-13T04:15:10.925Z,16.50
2018-09-13T04:17:40.680Z,16.50
2018-09-13T04:20:13.672Z,16.60
2018-09-13T04:22:44.226Z,16.60
2018-09-13T04:25:16.371Z,16.60
2018-09-13T04:27:48.140Z,16.60
2018-09-13T04:30:21.208Z,16.60
2018-09-13T04:32:52.237Z,16.50
2018-09-13T04:35:22.814Z,16.60
2018-09-13T04:37:54.239Z,16.50
2018-09-13T04:40:30.913Z,16.50
2018-09-13T04:43:02.808Z,16.50
2018-09-13T04:45:35.990Z,16.50
2018-09-13T04:48:06.528Z,16.50
2018-09-13T04:50:41.538Z,16.40
2018-09-13T04:53:13.219Z,16.40
2018-09-13T04:55:47.444Z,16.40
2018-09-13T04:58:17.726Z,16.40
2018-09-13T05:00:48.631Z,16.40
2018-09-13T05:03:19.704Z,16.40
2018-09-13T05:05:49.559Z,16.40
2018-09-13T05:08:18.799Z,16.40
2018-09-13T05:10:49.159Z,16.50
2018-09-13T05:13:18.423Z,16.50
2018-09-13T05:15:47.662Z,16.60
2018-09-13T05:18:16.930Z,16.60
2018-09-13T05:20:46.139Z,16.60
2018-09-13T05:23:15.401Z,16.70
2018-09-13T05:25:44.759Z,16.70
2018-09-13T05:28:15.035Z,16.70
2018-09-13T05:30:44.283Z,16.70
2018-09-13T05:33:13.579Z,16.70
2018-09-13T05:35:43.307Z,16.70
2018-09-13T05:38:12.651Z,16.70
2018-09-13T05:40:41.847Z,16.70
2018-09-13T05:43:11.209Z,16.70
2018-09-13T05:45:40.528Z,16.80
2018-09-13T05:48:10.687Z,16.90
2018-09-13T05:50:41.695Z,16.90
2018-09-13T05:53:12.504Z,17.00
2018-09-13T05:55:44.849Z,17.10
2018-09-13T05:58:15.971Z,17.40
2018-09-13T06:00:45.698Z,17.60
2018-09-13T06:03:15.468Z,17.90
2018-09-13T06:05:45.640Z,18.30
2018-09-13T06:08:15.001Z,18.60
2018-09-13T06:10:44.777Z,18.80
2018-09-13T06:13:14.687Z,19.10
2018-09-13T06:15:44.319Z,19.30
2018-09-13T06:18:14.248Z,19.50
2018-09-13T06:20:43.671Z,19.80
2018-09-13T06:23:13.137Z,20.00
2018-09-13T06:25:42.730Z,20.00
2018-09-13T06:28:12.452Z,19.90
2018-09-13T06:30:41.765Z,20.00
2018-09-13T06:33:11.372Z,20.20
2018-09-13T06:35:40.694Z,20.40
2018-09-13T06:38:10.067Z,20.80
2018-09-13T06:40:39.274Z,21.10
2018-09-13T06:43:09.062Z,21.40
2018-09-13T06:45:38.421Z,21.70
2018-09-13T06:48:08.441Z,21.80
2018-09-13T06:50:37.834Z,22.00
2018-09-13T06:53:07.247Z,22.20
2018-09-13T06:55:37.107Z,22.30
2018-09-13T06:58:06.733Z,22.40
2018-09-13T07:00:36.081Z,22.50
2018-09-13T07:03:06.883Z,22.60
2018-09-13T07:05:36.258Z,22.60
2018-09-13T07:08:06.018Z,22.50
2018-09-13T07:10:35.235Z,22.20
2018-09-13T07:13:04.881Z,22.00
2018-09-13T07:15:34.165Z,21.70
2018-09-13T07:18:04.420Z,21.40
2018-09-13T07:20:33.645Z,21.20
2018-09-13T07:23:03.464Z,21.00
2018-09-13T07:25:32.763Z,20.90
2018-09-13T07:28:02.019Z,20.80
2018-09-13T07:30:31.257Z,20.60
2018-09-13T07:33:00.491Z,20.50
2018-09-13T07:35:29.909Z,20.50
2018-09-13T07:37:59.157Z,20.40
2018-09-13T07:40:28.422Z,20.30
2018-09-13T07:42:57.793Z,20.40
2018-09-13T07:45:26.911Z,20.40
2018-09-13T07:47:56.502Z,20.40
2018-09-13T07:50:25.731Z,20.40
2018-09-13T07:52:55.615Z,20.50
2018-09-13T07:55:24.840Z,20.50
2018-09-13T07:57:54.155Z,20.50
2018-09-13T08:00:23.455Z,20.50
2018-09-13T08:02:53.083Z,20.50
2018-09-13T08:05:22.640Z,20.50
2018-09-13T08:07:51.938Z,20.50
2018-09-13T08:10:21.219Z,20.50
2018-09-13T08:12:50.396Z,20.50
2018-09-13T08:15:19.832Z,20.40
2018-09-13T08:17:49.079Z,20.40
2018-09-13T08:20:19.047Z,20.30
2018-09-13T08:22:48.358Z,20.20
2018-09-13T08:25:17.875Z,20.20
2018-09-13T08:27:47.352Z,20.10
2018-09-13T08:30:16.748Z,20.10
2018-09-13T08:32:46.056Z,20.10
2018-09-13T08:35:15.263Z,20.20
2018-09-13T08:37:44.849Z,20.20
2018-09-13T08:40:14.326Z,20.10
2018-09-13T08:42:43.761Z,20.20
2018-09-13T08:45:12.974Z,20.20
2018-09-13T08:47:42.688Z,20.20
2018-09-13T08:50:12.255Z,20.30
2018-09-13T08:52:41.500Z,20.40
2018-09-13T08:55:11.495Z,20.40
2018-09-13T08:57:41.076Z,20.40
2018-09-13T09:00:12.741Z,20.40
2018-09-13T09:02:42.426Z,20.50
2018-09-13T09:05:11.699Z,20.60
2018-09-13T09:07:41.299Z,20.60
2018-09-13T09:10:10.519Z,20.70
2018-09-13T09:12:39.792Z,20.80
2018-09-13T09:15:09.024Z,20.90
2018-09-13T09:17:38.295Z,20.90
2018-09-13T09:20:07.756Z,20.90
2018-09-13T09:22:37.031Z,21.00
2018-09-13T09:25:06.247Z,20.90
2018-09-13T09:27:35.485Z,21.00
2018-09-13T09:30:05.417Z,21.00
2018-09-13T09:32:34.704Z,21.10
2018-09-13T09:35:04.088Z,21.40
2018-09-13T09:37:33.845Z,21.50
2018-09-13T09:40:03.464Z,21.60
2018-09-13T09:42:32.694Z,21.80
2018-09-13T09:45:02.049Z,22.10
2018-09-13T09:47:31.284Z,22.30
2018-09-13T09:50:00.634Z,22.40
2018-09-13T09:52:30.045Z,22.60
2018-09-13T09:54:59.428Z,22.80
2018-09-13T09:57:28.921Z,22.90
2018-09-13T09:59:58.288Z,22.90
2018-09-13T10:02:27.513Z,22.90
2018-09-13T10:04:56.788Z,22.80
2018-09-13T10:07:25.983Z,22.80
2018-09-13T10:09:55.302Z,22.70
2018-09-13T10:12:24.666Z,22.70
2018-09-13T10:14:59.187Z,22.70
2018-09-13T10:17:33.803Z,22.70
2018-09-13T10:20:08.747Z,22.60
2018-09-13T10:23:43.618Z,22.60
2018-09-13T10:26:18.206Z,22.70
2018-09-13T10:28:52.734Z,22.70
2018-09-13T10:31:39.143Z,22.70
2018-09-13T10:34:13.795Z,22.70
2018-09-13T10:36:48.158Z,22.70
2018-09-13T10:39:22.538Z,22.70
2018-09-13T10:41:56.838Z,22.70
2018-09-13T10:44:31.398Z,22.70
2018-09-13T10:47:05.912Z,22.70
2018-09-13T10:49:40.427Z,22.70
2018-09-13T10:52:11.805Z,22.60
2018-09-13T10:54:42.935Z,22.50
2018-09-13T10:57:17.364Z,22.40
2018-09-13T10:59:47.752Z,22.40
2018-09-13T11:02:17.388Z,22.40
2018-09-13T11:04:46.695Z,22.40
2018-09-13T11:07:15.923Z,22.40
2018-09-13T11:09:45.346Z,22.30
2018-09-13T11:12:14.580Z,22.30
2018-09-13T11:14:49.908Z,22.40
2018-09-13T11:17:19.478Z,22.40
2018-09-13T11:19:49.160Z,22.40
2018-09-13T11:22:18.732Z,22.50
2018-09-13T11:24:48.059Z,22.50
2018-09-13T11:27:17.306Z,22.50
2018-09-13T11:29:46.982Z,22.60
2018-09-13T11:32:16.278Z,22.60
2018-09-13T11:34:45.687Z,22.70
2018-09-13T11:37:15.340Z,22.60
2018-09-13T11:39:44.625Z,22.60
2018-09-13T11:42:14.001Z,22.60
2018-09-13T11:44:43.225Z,22.70
2018-09-13T11:47:12.648Z,22.70
2018-09-13T11:49:41.900Z,22.60
2018-09-13T11:52:11.181Z,22.60
2018-09-13T11:54:40.600Z,22.50
2018-09-13T11:57:09.883Z,22.60
2018-09-13T11:59:39.191Z,22.60
2018-09-13T12:02:08.899Z,22.50
2018-09-13T12:04:38.199Z,22.50
2018-09-13T12:07:07.459Z,22.50
2018-09-13T12:09:36.756Z,22.50
2018-09-13T12:12:05.995Z,22.50
2018-09-13T12:14:35.555Z,22.60
2018-09-13T12:17:04.892Z,22.60
2018-09-13T12:19:34.111Z,22.70
2018-09-13T12:22:03.278Z,22.70
2018-09-13T12:24:33.070Z,22.80
2018-09-13T12:27:02.301Z,23.00
2018-09-13T12:29:31.491Z,23.10
2018-09-13T12:32:00.938Z,23.10
2018-09-13T12:34:31.587Z,23.20
2018-09-13T12:37:00.851Z,23.30
2018-09-13T12:39:30.111Z,23.40
2018-09-13T12:41:59.325Z,23.30
2018-09-13T12:44:29.053Z,23.30
2018-09-13T12:46:58.303Z,23.30
2018-09-13T12:49:27.595Z,23.20
2018-09-13T12:51:56.862Z,23.30
2018-09-13T12:54:26.171Z,23.30
2018-09-13T12:56:55.419Z,23.40
2018-09-13T12:59:24.726Z,23.40
2018-09-13T13:01:54.008Z,23.40
2018-09-13T13:04:23.320Z,23.50
2018-09-13T13:06:52.810Z,23.50
2018-09-13T13:09:22.050Z,23.40
2018-09-13T13:11:51.298Z,23.30
2018-09-13T13:14:20.521Z,23.30
2018-09-13T13:16:50.140Z,23.30
2018-09-13T13:19:19.441Z,23.30
2018-09-13T13:21:51.670Z,23.40
2018-09-13T13:24:21.180Z,23.50
2018-09-13T13:26:51.719Z,23.50
2018-09-13T13:29:21.030Z,23.50
2018-09-13T13:31:50.928Z,23.50
2018-09-13T13:34:21.211Z,23.50
2018-09-13T13:36:50.615Z,23.40
2018-09-13T13:39:20.071Z,23.50
2018-09-13T13:41:49.380Z,23.50
2018-09-13T13:44:18.736Z,23.50
2018-09-13T13:46:48.028Z,23.50
2018-09-13T13:49:17.420Z,23.50
2018-09-13T13:51:46.725Z,23.50
2018-09-13T13:54:16.097Z,23.50
2018-09-13T13:56:45.477Z,23.50
2018-09-13T13:59:14.888Z,23.60
2018-09-13T14:01:44.287Z,23.70
2018-09-13T14:04:13.598Z,23.80
2018-09-13T14:06:43.052Z,23.80
2018-09-13T14:09:13.542Z,23.80
2018-09-13T14:11:42.851Z,23.70
2018-09-13T14:14:12.158Z,23.70
2018-09-13T14:16:41.563Z,23.70
2018-09-13T14:19:11.447Z,23.70
2018-09-13T14:21:40.842Z,23.60
2018-09-13T14:24:10.364Z,23.50
2018-09-13T14:26:39.941Z,23.30
2018-09-13T14:29:09.291Z,23.20
2018-09-13T14:31:38.595Z,23.10
2018-09-13T14:34:07.820Z,23.00
2018-09-13T14:36:37.055Z,22.90
2018-09-13T14:39:08.882Z,22.90
2018-09-13T14:41:38.183Z,22.90
2018-09-13T14:44:07.802Z,22.90
2018-09-13T14:46:37.644Z,22.90
2018-09-13T14:49:07.460Z,23.00
2018-09-13T14:51:36.961Z,23.00
2018-09-13T14:54:06.289Z,23.10
2018-09-13T14:56:35.533Z,23.10
2018-09-13T14:59:04.815Z,23.10
2018-09-13T15:01:34.154Z,23.10
2018-09-13T15:04:03.511Z,23.00
2018-09-13T15:06:32.745Z,23.00
2018-09-13T15:09:01.969Z,23.00
2018-09-13T15:11:31.246Z,22.90
2018-09-13T15:14:00.574Z,23.00
2018-09-13T15:16:29.907Z,23.00
2018-09-13T15:18:59.203Z,23.00
2018-09-13T15:21:28.483Z,23.00
2018-09-13T15:23:57.667Z,23.00
2018-09-13T15:26:31.103Z,22.90
2018-09-13T15:29:00.370Z,22.90
2018-09-13T15:31:29.657Z,22.90
2018-09-13T15:33:58.912Z,22.90
2018-09-13T15:36:28.127Z,22.90
2018-09-13T15:38:57.691Z,22.80
2018-09-13T15:41:27.221Z,22.60
2018-09-13T15:43:56.742Z,22.40
2018-09-13T15:46:26.303Z,22.10
2018-09-13T15:48:55.642Z,21.90
2018-09-13T15:51:24.981Z,21.80
2018-09-13T15:53:54.261Z,21.60
2018-09-13T15:56:23.535Z,21.50
2018-09-13T15:58:52.873Z,21.40
2018-09-13T16:01:22.661Z,21.30
2018-09-13T16:03:52.145Z,21.20
2018-09-13T16:06:21.704Z,21.10
2018-09-13T16:08:50.963Z,21.00
2018-09-13T16:11:20.195Z,20.90
2018-09-13T16:13:49.490Z,20.80
2018-09-13T16:16:19.900Z,20.70
2018-09-13T16:18:49.335Z,20.70
2018-09-13T16:21:18.728Z,20.60
2018-09-13T16:23:47.995Z,20.60
2018-09-13T16:26:17.630Z,20.50
2018-09-13T16:28:47.092Z,20.50
2018-09-13T16:31:16.867Z,20.50
2018-09-13T16:33:46.795Z,20.60
2018-09-13T16:36:25.464Z,20.60
2018-09-13T16:38:59.778Z,20.50
2018-09-13T16:41:38.675Z,20.50
2018-09-13T16:44:08.023Z,20.40
2018-09-13T16:46:43.031Z,20.40
2018-09-13T16:49:13.110Z,20.30
2018-09-13T16:51:42.413Z,20.20
2018-09-13T16:54:12.714Z,20.10
2018-09-13T16:56:42.067Z,20.00
2018-09-13T16:59:11.304Z,19.90
2018-09-13T17:01:40.768Z,19.80
2018-09-13T17:04:10.120Z,19.70
2018-09-13T17:06:39.829Z,19.60
2018-09-13T17:09:10.300Z,19.50
2018-09-13T17:11:39.657Z,19.40
2018-09-13T17:14:08.863Z,19.30
2018-09-13T17:16:39.108Z,19.30
2018-09-13T17:19:08.572Z,19.20
2018-09-13T17:21:38.320Z,19.10
2018-09-13T17:24:07.871Z,19.10
2018-09-13T17:26:37.094Z,19.00
2018-09-13T17:29:06.718Z,18.90
2018-09-13T17:31:36.108Z,18.90
2018-09-13T17:34:05.411Z,18.90
2018-09-13T17:36:34.656Z,18.80
2018-09-13T17:39:04.287Z,18.80
2018-09-13T17:41:33.623Z,18.80
2018-09-13T17:44:02.839Z,18.70
2018-09-13T17:46:32.115Z,18.70
2018-09-13T17:49:01.409Z,18.80
2018-09-13T17:51:30.752Z,18.70
2018-09-13T17:53:59.985Z,18.60
2018-09-13T17:56:29.690Z,18.60
2018-09-13T17:58:59.400Z,18.50
2018-09-13T18:01:29.283Z,18.50
2018-09-13T18:03:59.297Z,18.50
2018-09-13T18:06:28.816Z,18.60
2018-09-13T18:08:58.758Z,18.60
2018-09-13T18:11:28.738Z,18.70
2018-09-13T18:13:58.837Z,18.70
2018-09-13T18:16:29.047Z,18.70
2018-09-13T18:18:58.936Z,18.60
2018-09-13T18:21:28.574Z,18.60
2018-09-13T18:23:58.409Z,18.50
2018-09-13T18:26:28.554Z,18.50
2018-09-13T18:28:58.320Z,18.50
2018-09-13T18:31:28.024Z,18.40
2018-09-13T18:33:57.663Z,18.40
2018-09-13T18:36:27.970Z,18.30
2018-09-13T18:39:01.898Z,18.30
2018-09-13T18:44:08.409Z,18.20
2018-09-13T18:46:38.035Z,18.20
2018-09-13T18:49:08.147Z,18.20
2018-09-13T18:51:38.051Z,18.10
2018-09-13T18:54:08.193Z,18.10
2018-09-13T18:56:38.169Z,18.10
2018-09-13T18:59:07.939Z,18.00
2018-09-13T19:01:37.960Z,18.00
2018-09-13T19:04:07.867Z,18.00
2018-09-13T19:06:37.747Z,17.90
2018-09-13T19:09:10.704Z,17.90
2018-09-13T19:11:40.429Z,17.90
2018-09-13T19:14:10.243Z,17.90
2018-09-13T19:16:39.947Z,17.80
2018-09-13T19:19:10.724Z,17.80
2018-09-13T19:21:40.548Z,17.80
2018-09-13T19:24:10.426Z,17.70
2018-09-13T19:26:41.873Z,17.70
2018-09-13T19:29:12.518Z,17.60
2018-09-13T19:31:42.236Z,17.60
2018-09-13T19:34:11.883Z,17.60
2018-09-13T19:36:41.943Z,17.70
2018-09-13T19:39:12.757Z,17.80
2018-09-13T19:41:42.839Z,17.80
2018-09-13T19:44:12.665Z,17.80
2018-09-13T19:46:42.487Z,17.80
2018-09-13T19:49:12.091Z,17.90
2018-09-13T19:51:41.831Z,17.80
2018-09-13T19:54:11.683Z,17.80
2018-09-13T19:56:41.340Z,17.70
2018-09-13T19:59:13.276Z,17.60
2018-09-13T20:01:45.181Z,17.60
2018-09-13T20:04:15.220Z,17.50
2018-09-13T20:06:44.878Z,17.50
2018-09-13T20:09:14.230Z,17.40
2018-09-13T20:11:43.564Z,17.40
2018-09-13T20:14:15.329Z,17.40
2018-09-13T20:16:45.610Z,17.40
2018-09-13T20:19:15.422Z,17.40
2018-09-13T20:21:44.997Z,17.50
2018-09-13T20:24:16.535Z,17.50
2018-09-13T20:26:46.474Z,17.50
2018-09-13T20:29:16.300Z,17.50
2018-09-13T20:31:46.268Z,17.60
2018-09-13T20:34:16.432Z,17.60
2018-09-13T20:36:46.805Z,17.60
2018-09-13T20:39:16.487Z,17.70
2018-09-13T20:41:46.607Z,17.70
2018-09-13T20:44:17.501Z,17.70
2018-09-13T20:46:47.355Z,17.60
2018-09-13T20:49:17.684Z,17.60
2018-09-13T20:51:47.454Z,17.50
2018-09-13T20:54:17.552Z,17.50
2018-09-13T20:56:48.020Z,17.50
2018-09-13T20:59:17.814Z,17.40
2018-09-13T21:01:47.475Z,17.50
2018-09-13T21:04:17.292Z,17.40
2018-09-13T21:06:47.187Z,17.40
2018-09-13T21:09:16.773Z,17.40
2018-09-13T21:11:46.985Z,17.30
2018-09-13T21:14:16.695Z,17.30
2018-09-13T21:16:46.008Z,17.30
2018-09-13T21:19:15.355Z,17.30
2018-09-13T21:21:44.602Z,17.30
2018-09-13T21:24:14.430Z,17.30
2018-09-13T21:26:43.710Z,17.30
2018-09-13T21:29:12.987Z,17.30
2018-09-13T21:31:42.509Z,17.30
2018-09-13T21:34:11.800Z,17.30
2018-09-13T21:36:41.009Z,17.30
2018-09-13T21:39:11.182Z,17.30
2018-09-13T21:41:40.490Z,17.30
2018-09-13T21:44:09.678Z,17.30
2018-09-13T21:46:38.976Z,17.40
2018-09-13T21:49:08.232Z,17.30
2018-09-13T21:51:37.841Z,17.40
2018-09-13T21:54:07.141Z,17.40
2018-09-13T21:56:36.353Z,17.40
2018-09-13T21:59:05.631Z,17.40
2018-09-13T22:01:35.128Z,17.40
2018-09-13T22:04:04.407Z,17.40
2018-09-13T22:06:33.791Z,17.40
2018-09-13T22:09:04.555Z,17.40
2018-09-13T22:11:33.898Z,17.40
2018-09-13T22:14:03.231Z,17.40
2018-09-13T22:16:32.511Z,17.40
2018-09-13T22:19:02.621Z,17.50
2018-09-13T22:21:32.062Z,17.50
2018-09-13T22:24:01.280Z,17.50
2018-09-13T22:26:30.562Z,17.50
2018-09-13T22:28:59.788Z,17.60
2018-09-13T22:31:32.871Z,17.60
2018-09-13T22:34:02.891Z,17.60
2018-09-13T22:36:32.754Z,17.60
2018-09-13T22:39:02.053Z,17.60
2018-09-13T22:41:31.312Z,17.60
2018-09-13T22:44:00.552Z,17.60
2018-09-13T22:46:29.750Z,17.60
2018-09-13T22:48:59.268Z,17.60
2018-09-13T22:51:28.846Z,17.50
2018-09-13T22:53:58.185Z,17.50
2018-09-13T22:56:27.528Z,17.40
2018-09-13T22:58:56.740Z,17.50
2018-09-13T23:01:26.007Z,17.40
2018-09-13T23:03:55.232Z,17.30
2018-09-13T23:06:24.464Z,17.30
2018-09-13T23:08:53.716Z,17.30
2018-09-13T23:11:22.922Z,17.30
2018-09-13T23:13:52.143Z,17.30
2018-09-13T23:16:21.410Z,17.30
2018-09-13T23:18:50.659Z,17.40
2018-09-13T23:21:19.967Z,17.30
2018-09-13T23:23:49.205Z,17.30
2018-09-13T23:26:18.468Z,17.30
2018-09-13T23:28:47.938Z,17.30
2018-09-13T23:31:17.153Z,17.30
2018-09-13T23:33:46.454Z,17.30
2018-09-13T23:36:15.675Z,17.30
2018-09-13T23:38:44.928Z,17.40
2018-09-13T23:41:15.137Z,17.40
2018-09-13T23:43:44.404Z,17.40
2018-09-13T23:46:13.668Z,17.40
2018-09-13T23:48:42.855Z,17.30
2018-09-13T23:51:12.123Z,17.40
2018-09-13T23:53:41.347Z,17.40
2018-09-13T23:56:10.589Z,17.40
2018-09-13T23:58:39.822Z,17.40
